Time;durP1;ratioP1;P1;durP2;ratioP2;P2;SDS_P1;SDS_P2;PMS_P1;PMS_P2;Temp;Humidity;BMP_temperature;BMP_pressure;BME280_temperature;BME280_humidity;BME280_pressure;Samples;Min_cycle;Max_cycle;Signal;HPM_P1;HPM_P2
2022/04/03 00:00:10;;;;;;;10.85;6.22;;;;;;;4.46;79.13;92316.53;5093163;28;20531;-52
2022/04/03 00:02:36;;;;;;;13.55;8.20;;;;;;;4.52;80.18;92324.59;5093240;28;20032;-51
2022/04/03 00:05:01;;;;;;;10.18;7.30;;;;;;;4.41;80.50;92325.63;5093396;28;20027;-52
2022/04/03 00:07:26;;;;;;;32.53;17.15;;;;;;;4.52;79.86;92317.16;5093282;28;20042;-54
2022/04/03 00:09:52;;;;;;;14.93;10.40;;;;;;;4.66;79.04;92323.22;5093113;28;20024;-54
2022/04/03 00:12:18;;;;;;;23.60;15.15;;;;;;;4.67;78.67;92323.97;5093428;28;20023;-55
2022/04/03 00:14:43;;;;;;;20.92;11.02;;;;;;;4.71;78.54;92330.56;5093041;28;20028;-53
2022/04/03 00:17:08;;;;;;;11.93;7.85;;;;;;;4.78;78.59;92329.13;5091827;28;20025;-54
2022/04/03 00:19:34;;;;;;;14.07;8.55;;;;;;;4.69;77.87;92324.16;5093017;28;20020;-55
2022/04/03 00:22:01;;;;;;;12.35;6.55;;;;;;;4.71;78.06;92318.88;5092967;28;20715;-55
2022/04/03 00:24:27;;;;;;;8.82;5.03;;;;;;;4.53;78.84;92331.53;5093179;28;20085;-54
2022/04/03 00:26:52;;;;;;;8.63;5.88;;;;;;;4.47;78.93;92322.75;5092855;28;20106;-54
2022/04/03 00:29:18;;;;;;;9.60;7.38;;;;;;;4.37;81.05;92346.34;5090766;28;20024;-50
2022/04/03 00:31:43;;;;;;;15.95;7.75;;;;;;;4.31;81.04;92338.28;5092587;28;20028;-53
2022/04/03 00:34:09;;;;;;;11.15;7.35;;;;;;;4.41;80.59;92333.09;5091475;28;20038;-53
2022/04/03 00:36:34;;;;;;;13.27;8.32;;;;;;;4.39;81.09;92333.63;5092562;28;20084;-53
2022/04/03 00:39:00;;;;;;;11.07;6.53;;;;;;;4.41;80.70;92309.22;5092588;28;20031;-53
2022/04/03 00:41:25;;;;;;;15.82;9.43;;;;;;;4.48;80.42;92324.22;5092844;28;20052;-56
2022/04/03 00:43:51;;;;;;;12.25;8.13;;;;;;;4.48;79.66;92324.22;5091171;28;20668;-55
2022/04/03 00:46:19;;;;;;;15.18;9.55;;;;;;;4.41;80.31;92330.34;5094465;28;20020;-56
2022/04/03 00:48:47;;;;;;;12.20;8.82;;;;;;;4.43;80.53;92336.75;5092355;28;20516;-56
2022/04/03 00:51:12;;;;;;;8.23;6.32;;;;;;;4.41;79.94;92333.09;5092274;28;20024;-58
2022/04/03 00:53:38;;;;;;;7.30;4.93;;;;;;;4.39;80.80;92333.63;5092223;28;20021;-57
2022/04/03 00:56:04;;;;;;;6.30;5.43;;;;;;;4.48;79.78;92333.13;5092069;28;20020;-56
2022/04/03 00:58:31;;;;;;;8.40;6.18;;;;;;;4.47;79.82;92328.94;5091866;28;20520;-56
2022/04/03 01:00:57;;;;;;;8.68;6.18;;;;;;;4.60;79.35;92330.84;5091937;28;20040;-57
2022/04/03 01:03:22;;;;;;;9.75;6.38;;;;;;;4.67;78.73;92332.16;5092053;28;20058;-53
2022/04/03 01:05:48;;;;;;;7.35;5.03;;;;;;;4.80;78.40;92324.59;5090956;28;20032;-53
2022/04/03 01:08:14;;;;;;;8.48;5.32;;;;;;;4.72;78.44;92325.81;5091928;28;20081;-53
2022/04/03 01:10:40;;;;;;;8.40;6.03;;;;;;;4.66;79.68;92320.50;5090916;28;20030;-53
2022/04/03 01:13:06;;;;;;;13.85;9.20;;;;;;;4.70;79.61;92323.59;5092250;28;20412;-52
2022/04/03 01:15:33;;;;;;;10.25;6.45;;;;;;;4.57;79.59;92320.97;5091613;28;20081;-56
2022/04/03 01:17:59;;;;;;;8.20;5.13;;;;;;;4.60;80.98;92325.38;5093365;28;20503;-56
2022/04/03 01:20:24;;;;;;;7.88;5.30;;;;;;;4.67;81.64;92313.03;5102136;28;20027;-56
2022/04/03 01:22:50;;;;;;;6.43;4.63;;;;;;;4.57;80.56;92310.03;5100854;28;20020;-59
2022/04/03 01:25:15;;;;;;;7.45;5.75;;;;;;;4.73;79.30;92294.47;5101138;27;20451;-59
2022/04/03 01:27:40;;;;;;;8.13;6.05;;;;;;;4.72;78.18;92291.00;5102038;28;20028;-59
2022/04/03 01:30:07;;;;;;;7.78;5.82;;;;;;;4.60;78.80;92296.03;5102107;28;20076;-55
2022/04/03 01:32:33;;;;;;;8.88;6.30;;;;;;;4.59;79.48;92296.59;5100675;28;20048;-59
2022/04/03 01:34:59;;;;;;;10.50;7.20;;;;;;;4.63;79.04;92297.69;5103650;28;20047;-59
2022/04/03 01:37:24;;;;;;;10.52;6.78;;;;;;;4.57;78.45;92305.31;5101708;28;20400;-58
2022/04/03 01:39:49;;;;;;;11.98;8.27;;;;;;;4.38;79.05;92310.28;5099967;28;20020;-58
2022/04/03 01:42:15;;;;;;;11.77;7.85;;;;;;;4.35;80.81;92319.56;5099867;28;20110;-57
2022/04/03 01:44:40;;;;;;;9.85;7.00;;;;;;;4.35;80.05;92310.66;5100515;28;20028;-58
2022/04/03 01:47:06;;;;;;;14.02;7.53;;;;;;;4.50;78.79;92311.47;5099768;28;20069;-57
2022/04/03 01:49:31;;;;;;;13.68;8.13;;;;;;;4.43;79.10;92308.69;5100760;28;20020;-57
2022/04/03 01:51:57;;;;;;;9.52;6.75;;;;;;;4.38;79.34;92306.81;5101309;28;20051;-57
2022/04/03 01:54:23;;;;;;;13.18;9.15;;;;;;;4.46;78.62;92305.59;5101106;28;20498;-56
2022/04/03 01:56:48;;;;;;;10.07;7.05;;;;;;;4.40;79.28;92304.28;5109488;28;20141;-57
2022/04/03 01:59:13;;;;;;;12.75;8.68;;;;;;;4.42;79.94;92309.94;5109530;28;20027;-55
2022/04/03 02:01:39;;;;;;;13.00;7.68;;;;;;;4.34;81.00;92309.91;5100220;28;20580;-53
2022/04/03 02:04:04;;;;;;;10.15;7.22;;;;;;;4.52;81.35;92310.94;5091160;28;20027;-56
2022/04/03 02:06:31;;;;;;;12.60;8.45;;;;;;;4.50;80.99;92314.19;5091248;28;20016;-53
2022/04/03 02:08:56;;;;;;;15.30;9.77;;;;;;;4.48;79.81;92303.06;5091261;28;20425;-54
2022/04/03 02:11:22;;;;;;;16.02;9.77;;;;;;;4.47;79.12;92309.81;5091105;28;20028;-58
2022/04/03 02:13:47;;;;;;;15.80;9.75;;;;;;;4.48;79.72;92308.53;5091060;28;20028;-58
2022/04/03 02:16:14;;;;;;;12.55;9.57;;;;;;;4.54;80.62;92320.06;5090981;28;20031;-58
2022/04/03 02:18:39;;;;;;;10.93;7.97;;;;;;;4.57;80.45;92316.25;5091075;28;20092;-59
2022/04/03 02:21:05;;;;;;;12.75;7.25;;;;;;;4.77;79.71;92308.50;5090584;28;20028;-60
2022/04/03 02:23:30;;;;;;;13.27;7.32;;;;;;;4.86;78.95;92305.28;5090851;28;20024;-60
2022/04/03 02:25:56;;;;;;;9.63;6.20;;;;;;;4.79;78.12;92309.44;5090584;28;20048;-58
2022/04/03 02:28:21;;;;;;;10.57;6.43;;;;;;;4.61;78.16;92321.38;5090727;28;20020;-57
2022/04/03 02:30:48;;;;;;;10.90;7.03;;;;;;;4.62;79.20;92322.84;5090547;28;20413;-60
2022/04/03 02:33:13;;;;;;;10.30;7.82;;;;;;;4.68;79.35;92328.88;5089291;28;20028;-54
2022/04/03 02:35:38;;;;;;;13.68;9.20;;;;;;;4.60;79.58;92330.84;5090543;28;20093;-51
2022/04/03 02:38:04;;;;;;;12.45;8.68;;;;;;;4.51;79.45;92332.06;5090408;28;20100;-52
2022/04/03 02:40:30;;;;;;;50.65;11.35;;;;;;;4.53;79.61;92318.59;5104455;28;20051;-51
2022/04/03 02:42:55;;;;;;;14.40;7.35;;;;;;;4.28;79.87;92305.84;5110942;28;20070;-52
2022/04/03 02:45:21;;;;;;;10.75;6.88;;;;;;;3.96;81.62;92311.63;5110946;28;20462;-54
2022/04/03 02:47:54;;;;;;;9.25;6.68;;;;;;;3.80;82.32;92310.75;5096512;28;20024;-55
2022/04/03 02:50:24;;;;;;;8.20;6.05;;;;;;;3.89;82.74;92309.56;5090264;28;20089;-54
2022/04/03 02:52:50;;;;;;;8.13;5.95;;;;;;;3.97;82.60;92315.81;5090224;28;20405;-52
2022/04/03 02:55:17;;;;;;;10.80;7.35;;;;;;;4.00;82.30;92305.81;5090137;28;20019;-53
2022/04/03 02:57:43;;;;;;;10.88;7.82;;;;;;;3.96;83.03;92308.88;5093142;28;20034;-52
2022/04/03 03:00:14;;;;;;;13.90;9.20;;;;;;;4.05;83.41;92318.63;5110337;28;20040;-51
2022/04/03 03:02:42;;;;;;;14.73;9.77;;;;;;;3.93;83.24;92323.59;5110506;28;20028;-52
2022/04/03 03:05:08;;;;;;;16.70;10.82;;;;;;;3.77;83.64;92311.06;5110803;28;20416;-54
2022/04/03 03:07:38;;;;;;;13.70;8.63;;;;;;;3.90;83.17;92311.00;5110150;28;20031;-53
2022/04/03 03:10:05;;;;;;;18.23;8.43;;;;;;;3.84;82.82;92319.34;5110379;28;20023;-52
2022/04/03 03:12:31;;;;;;;14.75;8.75;;;;;;;4.03;83.12;92316.41;5110687;28;20035;-58
2022/04/03 03:14:56;;;;;;;16.95;10.63;;;;;;;3.93;82.99;92309.94;5110519;28;20024;-57
2022/04/03 03:17:22;;;;;;;13.40;9.43;;;;;;;4.02;83.26;92311.47;5110462;28;20168;-54
2022/04/03 03:19:48;;;;;;;15.85;9.43;;;;;;;4.03;81.87;92324.59;5110239;28;20096;-51
2022/04/03 03:22:13;;;;;;;9.68;8.13;;;;;;;3.90;82.33;92321.94;5110249;28;20034;-52
2022/04/03 03:24:39;;;;;;;9.65;7.15;;;;;;;3.82;82.79;92300.03;5110545;28;20028;-53
2022/04/03 03:27:05;;;;;;;11.05;7.15;;;;;;;4.17;81.34;92326.00;5110304;28;20030;-50
2022/04/03 03:29:30;;;;;;;15.63;6.15;;;;;;;4.07;81.20;92330.44;5110493;28;20031;-53
2022/04/03 03:31:56;;;;;;;11.55;7.15;;;;;;;3.85;81.80;92333.72;5110141;28;20024;-53
2022/04/03 03:34:21;;;;;;;10.60;7.65;;;;;;;3.52;81.82;92293.56;5110402;28;20056;-57
2022/04/03 03:36:47;;;;;;;31.02;16.73;;;;;;;3.89;81.45;92339.59;5095680;28;20103;-57
2022/04/03 03:39:13;;;;;;;12.63;9.43;;;;;;;3.88;80.53;92334.66;5089759;28;20497;-57
2022/04/03 03:41:39;;;;;;;15.90;8.55;;;;;;;3.68;81.28;92327.94;5089952;28;20070;-58
2022/04/03 03:44:10;;;;;;;16.95;8.93;;;;;;;3.70;82.21;92336.31;5089745;28;20444;-53
2022/04/03 03:46:37;;;;;;;15.68;8.85;;;;;;;3.90;81.17;92343.75;5094020;28;20030;-52
2022/04/03 03:49:02;;;;;;;10.05;6.78;;;;;;;3.65;81.69;92335.19;5110226;28;20035;-57
2022/04/03 03:51:28;;;;;;;12.25;9.13;;;;;;;3.60;82.53;92346.22;5109940;28;20032;-55
2022/04/03 03:53:53;;;;;;;16.40;10.23;;;;;;;3.87;82.17;92336.66;5101104;28;20035;-54
2022/04/03 03:56:19;;;;;;;14.35;9.38;;;;;;;3.96;81.04;92346.38;5098566;28;20511;-50
2022/04/03 03:58:45;;;;;;;18.23;10.60;;;;;;;3.97;81.13;92348.56;5100368;28;20023;-54
2022/04/03 04:01:12;;;;;;;22.17;11.13;;;;;;;4.02;80.68;92358.63;5099640;28;20059;-51
2022/04/03 04:03:37;;;;;;;17.30;10.73;;;;;;;3.92;81.00;92357.63;5099934;28;20090;-57
2022/04/03 04:06:03;;;;;;;21.58;12.30;;;;;;;4.00;80.37;92363.91;5101360;28;20029;-54
2022/04/03 04:08:28;;;;;;;17.67;11.43;;;;;;;3.90;80.15;92360.16;5103810;28;20288;-54
2022/04/03 04:10:54;;;;;;;20.90;14.50;;;;;;;4.03;80.22;92364.84;5106654;28;20020;-57
2022/04/03 04:13:19;;;;;;;35.30;18.58;;;;;;;4.02;79.92;92364.09;5107184;28;20024;-56
2022/04/03 04:15:44;;;;;;;27.98;15.95;;;;;;;3.97;80.22;92377.88;5105629;28;20081;-57
2022/04/03 04:18:10;;;;;;;24.75;14.75;;;;;;;4.06;80.34;92375.41;5104925;28;20073;-52
2022/04/03 04:20:36;;;;;;;29.20;17.40;;;;;;;4.11;79.68;92366.38;5113452;28;20027;-54
2022/04/03 04:23:03;;;;;;;21.13;12.60;;;;;;;4.09;79.23;92374.38;5113677;28;20103;-54
2022/04/03 04:25:28;;;;;;;24.10;14.90;;;;;;;3.97;80.59;92373.16;5113562;28;20040;-56
2022/04/03 04:27:54;;;;;;;20.08;13.82;;;;;;;3.92;80.96;92378.75;5113427;28;20020;-53
2022/04/03 04:30:19;;;;;;;22.13;13.35;;;;;;;3.95;81.61;92383.13;5112923;27;20031;-54
2022/04/03 04:32:45;;;;;;;18.95;12.52;;;;;;;3.93;81.67;92380.94;5101068;28;20106;-57
2022/04/03 04:35:10;;;;;;;12.77;9.27;;;;;;;4.00;82.08;92385.00;5092975;28;20042;-57
2022/04/03 04:37:36;;;;;;;22.35;12.50;;;;;;;4.07;80.76;92398.00;5092554;28;20493;-62
2022/04/03 04:40:03;;;;;;;15.27;10.32;;;;;;;4.05;79.92;92400.53;5092590;28;20445;-59
2022/04/03 04:42:28;;;;;;;27.42;20.13;;;;;;;4.09;79.14;92396.22;5095964;28;20028;-60
2022/04/03 04:44:54;;;;;;;22.38;15.30;;;;;;;3.95;78.36;92396.78;5092683;28;20036;-62
2022/04/03 04:47:19;;;;;;;21.33;15.75;;;;;;;3.68;79.73;92413.25;5100755;28;20063;-53
2022/04/03 04:49:45;;;;;;;28.27;18.65;;;;;;;3.64;80.29;92414.84;5100051;28;20031;-50
2022/04/03 04:52:10;;;;;;;29.58;14.88;;;;;;;3.58;79.95;92411.50;5098821;28;20055;-50
2022/04/03 04:54:36;;;;;;;12.43;8.10;;;;;;;3.33;81.00;92418.50;5097762;28;20086;-48
2022/04/03 04:57:01;;;;;;;10.80;8.18;;;;;;;3.25;80.26;92425.84;5109299;28;20093;-48
2022/04/03 04:59:27;;;;;;;11.35;7.82;;;;;;;3.30;80.78;92425.00;5110684;28;20019;-47
2022/04/03 05:01:56;;;;;;;14.27;10.27;;;;;;;3.48;80.26;92424.88;5103893;28;20478;-57
2022/04/03 05:04:22;;;;;;;;;;;;;;;3.36;80.08;92434.53;5097237;28;20038;-60
2022/04/03 05:06:47;;;;;;;14.57;11.63;;;;;;;3.24;80.34;92440.72;5112217;27;19907;-63
2022/04/03 05:09:13;;;;;;;20.67;13.35;;;;;;;3.16;80.41;92435.19;5096296;28;20012;-62
2022/04/03 05:11:39;;;;;;;19.17;14.13;;;;;;;2.90;80.71;92416.13;5091262;28;20039;-59
2022/04/03 05:14:06;;;;;;;20.80;12.90;;;;;;;3.13;81.31;92444.41;5091161;28;20032;-51
2022/04/03 05:16:31;;;;;;;20.02;12.70;;;;;;;3.28;81.04;92441.88;5089495;28;20614;-60
2022/04/03 05:18:57;;;;;;;17.20;10.70;;;;;;;3.28;81.00;92433.69;5091197;28;20024;-58
2022/04/03 05:21:23;;;;;;;14.10;10.52;;;;;;;3.49;82.32;92448.16;5109721;28;20491;-59
2022/04/03 05:23:51;;;;;;;33.05;20.20;;;;;;;3.54;82.39;92450.03;5110914;28;20077;-58
2022/04/03 05:26:17;;;;;;;26.73;15.43;;;;;;;3.75;82.12;92463.75;5110806;28;20087;-59
2022/04/03 05:28:43;;;;;;;54.03;23.23;;;;;;;3.77;81.64;92445.56;5101040;28;20032;-59
2022/04/03 05:31:09;;;;;;;31.85;17.00;;;;;;;3.74;81.63;92465.00;5090183;28;20028;-58
2022/04/03 05:33:35;;;;;;;18.95;10.32;;;;;;;3.95;82.49;92468.53;5105628;28;20031;-59
2022/04/03 05:36:00;;;;;;;20.25;11.88;;;;;;;3.99;81.89;92460.75;5093400;28;20476;-59
2022/04/03 05:38:26;;;;;;;19.85;12.20;;;;;;;4.10;81.90;92460.50;5110107;28;20500;-60
2022/04/03 05:40:51;;;;;;;22.42;14.10;;;;;;;4.42;81.79;92463.72;5109513;27;20024;-60
2022/04/03 05:43:17;;;;;;;22.75;13.52;;;;;;;4.85;81.98;92465.19;5110088;28;20073;-59
2022/04/03 05:45:42;;;;;;;33.88;16.73;;;;;;;5.66;78.49;92468.97;5090370;28;20020;-59
2022/04/03 05:48:08;;;;;;;47.45;22.77;;;;;;;6.67;74.87;92470.22;5103725;28;20019;-58
2022/04/03 05:50:35;;;;;;;27.23;14.80;;;;;;;7.69;70.13;92462.22;5102389;28;20028;-59
2022/04/03 05:53:01;;;;;;;12.18;5.97;;;;;;;8.37;63.65;92459.25;5101123;28;20020;-59
2022/04/03 05:55:26;;;;;;;15.75;9.15;;;;;;;8.24;64.57;92470.47;5106937;28;20049;-60
2022/04/03 05:57:53;;;;;;;10.32;5.93;;;;;;;8.25;64.80;92461.66;5108535;28;20482;-60
2022/04/03 06:00:20;;;;;;;15.15;7.57;;;;;;;8.46;65.00;92460.66;5102783;28;20055;-61
2022/04/03 06:03:00;;;;;;;12.85;6.15;;;;;;;8.97;61.72;92469.84;5093924;28;20032;-60
2022/04/03 06:05:30;;;;;;;6.55;4.38;;;;;;;9.32;60.25;92472.69;5088813;28;20516;-59
2022/04/03 06:07:56;;;;;;;11.43;6.25;;;;;;;10.18;58.79;92465.94;5089013;28;20060;-60
2022/04/03 06:10:24;;;;;;;6.72;4.55;;;;;;;11.18;56.52;92477.84;5087750;28;20026;-61
2022/04/03 06:12:57;;;;;;;13.48;7.28;;;;;;;12.27;51.76;92481.13;5090434;28;20028;-59
2022/04/03 06:15:24;;;;;;;4.45;3.03;;;;;;;13.07;49.32;92479.84;5089872;28;20065;-57
2022/04/03 06:17:50;;;;;;;8.32;2.72;;;;;;;13.17;47.19;92486.06;5088545;28;20046;-60
2022/04/03 06:20:17;;;;;;;15.60;4.78;;;;;;;13.13;48.07;92492.06;5088741;28;20062;-59
2022/04/03 06:22:43;;;;;;;4.30;2.10;;;;;;;13.06;45.91;92468.03;5094739;28;20057;-60
2022/04/03 06:25:09;;;;;;;3.53;1.98;;;;;;;13.65;44.43;92492.13;5097391;28;20045;-61
2022/04/03 06:27:34;;;;;;;4.07;1.50;;;;;;;14.72;43.47;92499.91;5087566;28;20016;-60
2022/04/03 06:30:00;;;;;;;6.13;3.17;;;;;;;15.84;40.29;92497.06;5092042;28;20027;-63
2022/04/03 06:32:25;;;;;;;3.63;2.53;;;;;;;17.27;38.64;92496.84;5108845;28;20655;-57
2022/04/03 06:34:51;;;;;;;8.82;4.97;;;;;;;18.59;36.07;92505.13;5108918;28;20039;-63
2022/04/03 06:37:17;;;;;;;11.43;4.53;;;;;;;19.21;34.70;92496.25;5108304;27;20123;-61
2022/04/03 06:39:42;;;;;;;2.92;1.70;;;;;;;18.64;33.35;92504.00;5104722;28;20108;-54
2022/04/03 06:42:08;;;;;;;19.15;10.63;;;;;;;17.73;33.32;92512.59;5104764;28;20088;-61
2022/04/03 06:44:33;;;;;;;6.88;4.50;;;;;;;16.98;35.06;92516.19;5102997;28;20053;-55
2022/04/03 06:46:59;;;;;;;6.65;3.00;;;;;;;16.49;37.84;92526.59;5102319;28;20030;-59
2022/04/03 06:49:26;;;;;;;9.77;5.90;;;;;;;15.89;37.80;92532.88;5108167;28;20026;-59
2022/04/03 06:51:51;;;;;;;3.40;1.90;;;;;;;15.04;37.31;92537.31;5107005;28;20489;-59
2022/04/03 06:54:17;;;;;;;4.05;2.53;;;;;;;14.16;39.87;92527.47;5108467;28;20027;-58
2022/04/03 06:56:42;;;;;;;2.45;1.48;;;;;;;14.83;36.92;92517.94;5108405;28;20493;-60
2022/04/03 06:59:08;;;;;;;3.80;2.22;;;;;;;15.66;36.46;92537.69;5107799;28;20027;-59
2022/04/03 07:01:33;;;;;;;1.10;0.73;;;;;;;16.22;34.50;92537.56;5100439;28;20048;-59
2022/04/03 07:03:59;;;;;;;6.82;1.73;;;;;;;17.48;32.25;92540.53;5094544;28;20032;-59
2022/04/03 07:06:24;;;;;;;4.07;1.30;;;;;;;17.39;32.82;92550.50;5086272;28;20036;-61
2022/04/03 07:08:50;;;;;;;3.72;2.25;;;;;;;17.53;30.83;92542.22;5087971;28;20116;-60
2022/04/03 07:11:15;;;;;;;1.55;0.95;;;;;;;19.21;30.89;92543.84;5087438;28;20016;-58
2022/04/03 07:13:41;;;;;;;5.70;1.30;;;;;;;19.71;28.21;92539.91;5087616;28;20027;-54
2022/04/03 07:16:07;;;;;;;4.63;1.55;;;;;;;20.42;27.79;92556.44;5087135;28;20020;-58
2022/04/03 07:18:35;;;;;;;1.67;1.00;;;;;;;21.55;26.55;92566.78;5087011;28;20039;-56
2022/04/03 07:21:01;;;;;;;1.02;0.88;;;;;;;22.16;25.13;92564.22;5095765;28;20421;-55
2022/04/03 07:23:26;;;;;;;2.10;1.90;;;;;;;22.20;24.97;92570.00;5108329;28;20028;-55
2022/04/03 07:25:52;;;;;;;3.55;2.17;;;;;;;22.92;23.63;92566.28;5108123;28;20470;-56
2022/04/03 07:28:18;;;;;;;6.97;5.97;;;;;;;23.34;22.64;92558.56;5107726;28;20565;-51
2022/04/03 07:30:43;;;;;;;2.88;0.90;;;;;;;22.84;22.61;92566.00;5107974;28;20164;-54
2022/04/03 07:33:09;;;;;;;1.02;0.82;;;;;;;23.11;23.14;92564.78;5107534;28;20424;-48
2022/04/03 07:35:35;;;;;;;6.20;1.20;;;;;;;23.29;22.62;92579.50;5105965;28;20024;-53
2022/04/03 07:38:00;;;;;;;1.58;0.95;;;;;;;22.88;22.47;92585.13;5106677;28;20031;-53
2022/04/03 07:40:26;;;;;;;7.70;3.55;;;;;;;23.08;23.74;92577.38;5107875;28;20417;-55
2022/04/03 07:42:52;;;;;;;1.13;0.80;;;;;;;23.63;22.62;92580.63;5109970;28;20027;-51
2022/04/03 07:45:18;;;;;;;1.48;1.20;;;;;;;24.12;22.20;92585.00;5110548;28;20034;-50
2022/04/03 07:47:48;;;;;;;2.78;1.27;;;;;;;24.32;22.15;92585.63;5096883;28;20016;-53
2022/04/03 07:50:14;;;;;;;4.10;1.90;;;;;;;25.01;21.36;92582.66;5095685;28;20019;-51
2022/04/03 07:52:41;;;;;;;1.42;0.70;;;;;;;24.29;21.48;92596.13;5102945;28;20062;-55
2022/04/03 07:55:10;;;;;;;1.90;0.90;;;;;;;23.24;22.24;92597.63;5101229;28;20089;-51
2022/04/03 07:57:40;;;;;;;6.50;1.27;;;;;;;22.47;23.38;92611.81;5109387;28;20024;-50
2022/04/03 08:00:11;;;;;;;2.78;1.50;;;;;;;20.96;23.99;92611.34;5093998;28;20020;-49
2022/04/03 08:02:37;;;;;;;1.85;0.57;;;;;;;19.25;28.05;92611.19;5107086;28;20531;-47
2022/04/03 08:05:04;;;;;;;2.53;1.40;;;;;;;18.46;29.64;92609.31;5113254;28;20458;-51
2022/04/03 08:07:44;;;;;;;1.30;1.20;;;;;;;19.99;27.67;92608.44;5110266;28;20027;-49
2022/04/03 08:10:10;;;;;;;3.15;1.05;;;;;;;21.52;26.39;92615.09;5111205;28;20059;-49
2022/04/03 08:12:36;;;;;;;9.75;2.40;;;;;;;22.79;25.74;92614.34;5110044;28;20077;-53
2022/04/03 08:15:04;;;;;;;5.28;1.45;;;;;;;21.98;25.37;92619.06;5111184;28;20031;-49
2022/04/03 08:17:30;;;;;;;1.38;0.93;;;;;;;19.61;28.37;92633.28;5106926;28;20028;-50
2022/04/03 08:19:56;;;;;;;2.65;0.73;;;;;;;18.15;31.61;92652.41;5099523;28;20031;-53
2022/04/03 08:22:21;;;;;;;2.50;0.70;;;;;;;16.54;34.44;92648.88;5093264;27;20035;-48
2022/04/03 08:24:48;;;;;;;2.78;1.40;;;;;;;15.79;35.91;92646.38;5090574;28;20036;-49
2022/04/03 08:27:14;;;;;;;2.20;1.55;;;;;;;15.21;38.12;92659.34;5097293;28;20054;-50
2022/04/03 08:29:40;;;;;;;3.70;2.05;;;;;;;14.07;41.04;92660.78;5111081;28;20050;-49
2022/04/03 08:32:06;;;;;;;2.97;2.40;;;;;;;13.06;43.07;92667.53;5110694;28;20023;-50
2022/04/03 08:34:31;;;;;;;4.25;1.95;;;;;;;12.68;45.18;92668.25;5111259;28;20055;-48
2022/04/03 08:36:57;;;;;;;6.25;2.08;;;;;;;12.56;48.03;92655.56;5110811;28;20450;-49
2022/04/03 08:39:23;;;;;;;2.38;1.70;;;;;;;12.34;47.62;92653.91;5110694;28;20015;-48
2022/04/03 08:41:49;;;;;;;3.22;2.15;;;;;;;12.26;47.80;92648.47;5110765;28;20027;-48
2022/04/03 08:44:14;;;;;;;2.20;1.80;;;;;;;12.17;48.29;92651.97;5110317;28;20015;-49
2022/04/03 08:46:43;;;;;;;3.92;1.92;;;;;;;12.06;46.69;92672.59;5110536;28;20111;-50
2022/04/03 08:49:09;;;;;;;10.40;1.98;;;;;;;12.14;48.10;92684.28;5110701;27;20027;-49
2022/04/03 08:51:37;;;;;;;2.58;1.40;;;;;;;12.05;47.66;92662.84;5109653;28;20539;-47
2022/04/03 08:54:03;;;;;;;2.22;1.60;;;;;;;12.08;49.85;92661.69;5109390;28;20119;-48
2022/04/03 08:56:29;;;;;;;1.90;1.27;;;;;;;12.80;45.23;92663.56;5110448;28;20143;-46
2022/04/03 08:58:55;;;;;;;1.92;1.40;;;;;;;14.97;38.94;92661.31;5096812;27;20035;-48
2022/04/03 09:01:21;;;;;;;3.53;1.58;;;;;;;16.88;38.29;92657.78;5089947;28;20067;-48
2022/04/03 09:03:47;;;;;;;2.70;1.65;;;;;;;18.45;34.42;92656.09;5094020;28;20343;-50
2022/04/03 09:06:15;;;;;;;15.55;3.63;;;;;;;19.94;32.14;92646.00;5110317;28;20076;-48
2022/04/03 09:08:40;;;;;;;6.97;2.10;;;;;;;21.55;30.24;92653.84;5110216;28;20034;-49
2022/04/03 09:11:07;;;;;;;1.73;0.90;;;;;;;22.22;27.77;92637.56;5110244;28;20024;-48
2022/04/03 09:13:33;;;;;;;4.88;3.72;;;;;;;23.12;26.21;92643.00;5109647;28;20696;-49
2022/04/03 09:15:58;;;;;;;5.68;4.03;;;;;;;23.87;24.79;92648.34;5103546;28;20035;-51
2022/04/03 09:18:41;;;;;;;2.10;0.93;;;;;;;24.38;24.18;92642.94;5093908;28;20024;-56
2022/04/03 09:21:23;;;;;;;4.50;3.00;;;;;;;22.94;23.23;92644.44;5088964;28;20024;-49
2022/04/03 09:24:06;;;;;;;1.13;0.73;;;;;;;21.64;26.91;92640.84;5089490;28;20034;-48
2022/04/03 09:26:33;;;;;;;7.78;5.25;;;;;;;20.67;26.01;92656.41;5089675;28;20020;-59
2022/04/03 09:29:09;;;;;;;4.80;2.60;;;;;;;16.88;32.52;92703.13;5089460;28;20023;-59
2022/04/03 09:31:35;;;;;;;5.80;3.00;;;;;;;14.72;38.96;92730.50;5089295;28;20421;-59
2022/04/03 09:34:02;;;;;;;6.00;2.80;;;;;;;13.52;42.72;92731.88;5089160;28;20036;-62
2022/04/03 09:36:35;;;;;;;2.33;0.95;;;;;;;13.08;44.21;92748.06;5089009;28;20028;-67
2022/04/03 09:39:08;;;;;;;5.18;3.70;;;;;;;12.53;47.01;92721.13;5091597;28;20458;-60
2022/04/03 09:41:35;;;;;;;8.55;2.60;;;;;;;12.43;48.51;92709.28;5100412;28;20038;-59
2022/04/03 09:44:14;;;;;;;3.92;2.92;;;;;;;12.04;48.69;92680.03;5104288;28;20023;-58
2022/04/03 09:46:40;;;;;;;4.30;2.80;;;;;;;13.26;46.66;92718.16;5093731;27;20083;-56
2022/04/03 09:49:22;;;;;;;4.07;2.47;;;;;;;15.09;42.31;92706.56;5109144;28;20488;-60
2022/04/03 09:51:47;;;;;;;2.22;1.52;;;;;;;15.99;37.25;92712.97;5109003;28;20409;-60
2022/04/03 09:54:19;;;;;;;4.90;3.10;;;;;;;15.76;37.05;92674.69;5108612;28;20170;-61
2022/04/03 09:56:44;;;;;;;3.00;1.98;;;;;;;15.34;39.71;92700.53;5108540;28;20019;-55
2022/04/03 09:59:10;;;;;;;8.38;5.35;;;;;;;14.82;41.79;92697.84;5089629;28;20412;-53
2022/04/03 10:01:40;;;;;;;2.65;1.75;;;;;;;15.90;42.73;92695.06;5106731;28;20047;-60
2022/04/03 10:04:17;;;;;;;0.80;0.70;;;;;;;17.47;38.32;92696.09;5106485;28;20107;-56
2022/04/03 10:06:43;;;;;;;2.28;1.80;;;;;;;18.83;34.45;92693.72;5106955;28;20020;-63
2022/04/03 10:09:15;;;;;;;1.42;1.10;;;;;;;19.73;34.09;92694.03;5093050;28;20052;-59
2022/04/03 10:11:43;;;;;;;2.17;1.55;;;;;;;18.46;33.21;92702.28;5088409;28;20481;-48
2022/04/03 10:14:10;;;;;;;5.35;1.60;;;;;;;17.54;35.28;92711.88;5088742;28;20032;-60
2022/04/03 10:16:36;;;;;;;4.05;1.70;;;;;;;16.53;35.70;92717.09;5089740;28;20036;-52
2022/04/03 10:19:02;;;;;;;1.25;1.15;;;;;;;15.50;37.04;92715.50;5089911;28;20546;-51
2022/04/03 10:21:48;;;;;;;3.65;1.15;;;;;;;14.24;37.35;92724.41;5089955;28;20101;-52
2022/04/03 10:24:16;;;;;;;5.07;2.20;;;;;;;13.60;39.02;92732.44;5107308;28;20059;-59
2022/04/03 10:26:44;;;;;;;3.45;1.55;;;;;;;13.12;39.86;92736.56;5109135;28;20064;-60
2022/04/03 10:29:10;;;;;;;2.83;1.40;;;;;;;13.07;40.90;92777.09;5108640;28;20493;-48
2022/04/03 10:31:39;;;;;;;2.35;1.33;;;;;;;12.48;43.33;92774.72;5110143;28;20418;-56
2022/04/03 10:34:05;;;;;;;1.65;1.08;;;;;;;12.24;42.68;92753.50;5110228;28;20026;-45
2022/04/03 10:36:33;;;;;;;3.17;2.38;;;;;;;12.32;46.26;92756.91;5110065;28;20023;-58
2022/04/03 10:39:08;;;;;;;6.20;1.90;;;;;;;13.00;44.58;92752.25;5101879;28;20119;-52
2022/04/03 10:41:39;;;;;;;4.03;3.38;;;;;;;14.64;43.40;92741.06;5091287;28;20036;-51
2022/04/03 10:44:11;;;;;;;6.68;5.00;;;;;;;15.88;38.76;92731.84;5096719;28;20087;-49
2022/04/03 10:47:04;;;;;;;1.55;0.82;;;;;;;16.75;35.48;92722.53;5099587;28;20076;-50
2022/04/03 10:49:30;;;;;;;1.00;0.90;;;;;;;16.28;34.84;92721.78;5089182;28;20046;-49
2022/04/03 10:52:02;;;;;;;1.30;1.10;;;;;;;15.55;34.77;92722.78;5089655;28;20032;-48
2022/04/03 10:54:30;;;;;;;2.65;1.00;;;;;;;14.91;37.71;92735.97;5089389;28;20516;-53
2022/04/03 10:57:34;;;;;;;1.95;0.90;;;;;;;14.31;38.44;92693.69;5089515;28;20719;-53
2022/04/03 11:00:12;;;;;;;1.60;1.50;;;;;;;15.57;38.24;92730.53;5109148;28;20039;-58
2022/04/03 11:02:58;;;;;;;3.85;1.67;;;;;;;16.24;35.74;92666.53;5109511;28;20047;-59
2022/04/03 11:05:29;;;;;;;3.08;1.77;;;;;;;17.58;34.92;92714.88;5087639;28;20032;-60
2022/04/03 11:08:00;;;;;;;9.63;2.08;;;;;;;18.64;34.46;92716.50;5109508;28;20026;-59
2022/04/03 11:10:57;;;;;;;1.00;0.82;;;;;;;19.66;29.72;92698.63;5109739;28;20031;-57
2022/04/03 11:13:28;;;;;;;17.70;2.65;;;;;;;20.25;29.55;92697.25;5102767;28;20107;-51
2022/04/03 11:16:09;;;;;;;7.13;0.90;;;;;;;20.32;29.30;92690.56;5093242;28;20060;-59
2022/04/03 11:18:35;;;;;;;4.53;1.00;;;;;;;19.67;28.21;92691.66;5093500;28;20043;-58
2022/04/03 11:21:23;;;;;;;2.97;0.88;;;;;;;19.43;27.69;92680.00;5093549;28;20016;-59
2022/04/03 11:23:53;;;;;;;1.95;1.25;;;;;;;19.68;28.43;92687.50;5093125;28;20024;-53
2022/04/03 11:26:19;;;;;;;1.45;1.35;;;;;;;20.04;28.97;92688.50;5091940;28;20038;-57
2022/04/03 11:28:45;;;;;;;1.95;0.90;;;;;;;20.61;27.46;92689.06;5093072;28;20572;-59
2022/04/03 11:31:11;;;;;;;3.78;1.70;;;;;;;20.31;25.39;92674.41;5093401;28;20415;-56